sensor_id;sensor_type;location;lat;lon;timestamp;P1;durP1;ratioP1;P2;durP2;ratioP2
1218;SDS011;599;51.494;6.670;2022-08-07T00:01:31;5.30;;;4.60;;
1218;SDS011;599;51.494;6.670;2022-08-07T00:03:57;5.40;;;4.47;;
1218;SDS011;599;51.494;6.670;2022-08-07T00:06:24;9.23;;;4.95;;
1218;SDS011;599;51.494;6.670;2022-08-07T00:08:50;5.63;;;4.95;;
1218;SDS011;599;51.494;6.670;2022-08-07T00:11:16;5.50;;;4.18;;
1218;SDS011;599;51.494;6.670;2022-08-07T00:13:42;13.80;;;9.68;;
1218;SDS011;599;51.494;6.670;2022-08-07T00:16:11;12.23;;;10.98;;
1218;SDS011;599;51.494;6.670;2022-08-07T00:18:38;8.27;;;7.45;;
1218;SDS011;599;51.494;6.670;2022-08-07T00:21:05;8.43;;;6.45;;
1218;SDS011;599;51.494;6.670;2022-08-07T00:23:34;6.65;;;5.55;;
1218;SDS011;599;51.494;6.670;2022-08-07T00:26:03;5.72;;;4.68;;
1218;SDS011;599;51.494;6.670;2022-08-07T00:28:34;4.75;;;4.30;;
1218;SDS011;599;51.494;6.670;2022-08-07T00:31:04;4.95;;;4.22;;
1218;SDS011;599;51.494;6.670;2022-08-07T00:33:34;6.20;;;4.82;;
1218;SDS011;599;51.494;6.670;2022-08-07T00:36:01;5.47;;;4.97;;
1218;SDS011;599;51.494;6.670;2022-08-07T00:38:28;7.10;;;5.88;;
1218;SDS011;599;51.494;6.670;2022-08-07T00:40:55;5.03;;;4.53;;
1218;SDS011;599;51.494;6.670;2022-08-07T00:43:22;9.60;;;5.47;;
1218;SDS011;599;51.494;6.670;2022-08-07T00:45:48;7.03;;;5.40;;
1218;SDS011;599;51.494;6.670;2022-08-07T00:48:14;7.83;;;5.27;;
1218;SDS011;599;51.494;6.670;2022-08-07T00:50:40;10.83;;;4.67;;
1218;SDS011;599;51.494;6.670;2022-08-07T00:53:06;5.82;;;5.22;;
1218;SDS011;599;51.494;6.670;2022-08-07T00:55:32;7.40;;;5.40;;
1218;SDS011;599;51.494;6.670;2022-08-07T00:57:59;6.35;;;4.68;;
1218;SDS011;599;51.494;6.670;2022-08-07T01:00:24;6.37;;;4.90;;
1218;SDS011;599;51.494;6.670;2022-08-07T01:02:51;5.63;;;5.05;;
1218;SDS011;599;51.494;6.670;2022-08-07T01:05:17;5.77;;;5.00;;
1218;SDS011;599;51.494;6.670;2022-08-07T01:07:45;6.47;;;5.20;;
1218;SDS011;599;51.494;6.670;2022-08-07T01:10:11;6.15;;;4.60;;
1218;SDS011;599;51.494;6.670;2022-08-07T01:12:39;5.50;;;4.57;;
1218;SDS011;599;51.494;6.670;2022-08-07T01:15:06;6.97;;;5.40;;
1218;SDS011;599;51.494;6.670;2022-08-07T01:17:33;9.90;;;4.90;;
1218;SDS011;599;51.494;6.670;2022-08-07T01:20:05;5.22;;;4.57;;
1218;SDS011;599;51.494;6.670;2022-08-07T01:22:38;6.07;;;5.47;;
1218;SDS011;599;51.494;6.670;2022-08-07T01:25:05;5.97;;;5.30;;
1218;SDS011;599;51.494;6.670;2022-08-07T01:27:36;6.00;;;4.93;;
1218;SDS011;599;51.494;6.670;2022-08-07T01:30:03;5.68;;;5.13;;
1218;SDS011;599;51.494;6.670;2022-08-07T01:32:30;6.20;;;5.18;;
1218;SDS011;599;51.494;6.670;2022-08-07T01:34:58;5.72;;;5.03;;
1218;SDS011;599;51.494;6.670;2022-08-07T01:37:25;6.30;;;4.75;;
1218;SDS011;599;51.494;6.670;2022-08-07T01:39:54;6.75;;;5.35;;
1218;SDS011;599;51.494;6.670;2022-08-07T01:42:29;6.68;;;5.30;;
1218;SDS011;599;51.494;6.670;2022-08-07T01:44:55;7.60;;;5.30;;
1218;SDS011;599;51.494;6.670;2022-08-07T01:47:21;6.85;;;5.25;;
1218;SDS011;599;51.494;6.670;2022-08-07T01:49:48;7.20;;;6.50;;
1218;SDS011;599;51.494;6.670;2022-08-07T01:52:14;6.70;;;5.30;;
1218;SDS011;599;51.494;6.670;2022-08-07T01:54:40;8.95;;;5.93;;
1218;SDS011;599;51.494;6.670;2022-08-07T01:57:16;6.35;;;5.40;;
1218;SDS011;599;51.494;6.670;2022-08-07T02:00:00;7.10;;;6.40;;
1218;SDS011;599;51.494;6.670;2022-08-07T02:05:25;9.93;;;5.88;;
1218;SDS011;599;51.494;6.670;2022-08-07T02:08:04;6.93;;;6.13;;
1218;SDS011;599;51.494;6.670;2022-08-07T02:10:38;8.25;;;6.50;;
1218;SDS011;599;51.494;6.670;2022-08-07T02:13:06;7.30;;;6.07;;
1218;SDS011;599;51.494;6.670;2022-08-07T02:15:43;6.38;;;5.78;;
1218;SDS011;599;51.494;6.670;2022-08-07T02:18:10;9.45;;;5.63;;
1218;SDS011;599;51.494;6.670;2022-08-07T02:20:37;7.70;;;6.30;;
1218;SDS011;599;51.494;6.670;2022-08-07T02:23:06;7.20;;;6.10;;
1218;SDS011;599;51.494;6.670;2022-08-07T02:25:33;7.97;;;6.07;;
1218;SDS011;599;51.494;6.670;2022-08-07T02:28:01;9.63;;;6.65;;
1218;SDS011;599;51.494;6.670;2022-08-07T02:30:28;9.13;;;6.95;;
1218;SDS011;599;51.494;6.670;2022-08-07T02:32:56;7.30;;;5.75;;
1218;SDS011;599;51.494;6.670;2022-08-07T02:35:25;9.77;;;7.00;;
1218;SDS011;599;51.494;6.670;2022-08-07T02:37:56;7.28;;;6.55;;
1218;SDS011;599;51.494;6.670;2022-08-07T02:40:24;7.53;;;6.70;;
1218;SDS011;599;51.494;6.670;2022-08-07T02:42:51;8.10;;;6.35;;
1218;SDS011;599;51.494;6.670;2022-08-07T02:45:19;8.18;;;7.38;;
1218;SDS011;599;51.494;6.670;2022-08-07T02:47:49;8.38;;;6.85;;
1218;SDS011;599;51.494;6.670;2022-08-07T02:50:17;8.48;;;7.68;;
1218;SDS011;599;51.494;6.670;2022-08-07T02:52:45;9.15;;;7.28;;
1218;SDS011;599;51.494;6.670;2022-08-07T02:55:24;9.32;;;7.03;;
1218;SDS011;599;51.494;6.670;2022-08-07T02:57:52;10.38;;;7.28;;
1218;SDS011;599;51.494;6.670;2022-08-07T03:00:23;10.13;;;7.28;;
1218;SDS011;599;51.494;6.670;2022-08-07T03:02:52;7.70;;;7.00;;
1218;SDS011;599;51.494;6.670;2022-08-07T03:05:19;7.15;;;6.43;;
1218;SDS011;599;51.494;6.670;2022-08-07T03:07:47;10.52;;;7.20;;
1218;SDS011;599;51.494;6.670;2022-08-07T03:10:14;8.10;;;6.07;;
1218;SDS011;599;51.494;6.670;2022-08-07T03:12:43;7.55;;;6.85;;
1218;SDS011;599;51.494;6.670;2022-08-07T03:15:13;6.85;;;6.15;;
1218;SDS011;599;51.494;6.670;2022-08-07T03:17:40;7.55;;;6.68;;
1218;SDS011;599;51.494;6.670;2022-08-07T03:20:09;13.00;;;7.20;;
1218;SDS011;599;51.494;6.670;2022-08-07T03:22:37;9.63;;;7.18;;
1218;SDS011;599;51.494;6.670;2022-08-07T03:25:06;8.10;;;7.30;;
1218;SDS011;599;51.494;6.670;2022-08-07T03:27:40;8.60;;;6.70;;
1218;SDS011;599;51.494;6.670;2022-08-07T03:30:16;7.68;;;6.88;;
1218;SDS011;599;51.494;6.670;2022-08-07T03:32:46;8.43;;;6.75;;
1218;SDS011;599;51.494;6.670;2022-08-07T03:35:16;6.95;;;6.25;;
1218;SDS011;599;51.494;6.670;2022-08-07T03:37:49;7.63;;;6.93;;
1218;SDS011;599;51.494;6.670;2022-08-07T03:40:27;7.45;;;6.38;;
1218;SDS011;599;51.494;6.670;2022-08-07T03:42:55;7.00;;;6.30;;
1218;SDS011;599;51.494;6.670;2022-08-07T03:45:23;7.25;;;6.53;;
1218;SDS011;599;51.494;6.670;2022-08-07T03:47:51;7.45;;;6.75;;
1218;SDS011;599;51.494;6.670;2022-08-07T03:50:19;8.25;;;6.80;;
1218;SDS011;599;51.494;6.670;2022-08-07T03:52:48;9.07;;;7.53;;
1218;SDS011;599;51.494;6.670;2022-08-07T03:55:18;9.63;;;7.25;;
1218;SDS011;599;51.494;6.670;2022-08-07T03:57:47;9.65;;;7.30;;
1218;SDS011;599;51.494;6.670;2022-08-07T04:00:16;6.88;;;6.28;;
1218;SDS011;599;51.494;6.670;2022-08-07T04:02:48;8.20;;;7.40;;
1218;SDS011;599;51.494;6.670;2022-08-07T04:05:23;9.02;;;8.10;;
1218;SDS011;599;51.494;6.670;2022-08-07T04:07:50;8.43;;;6.82;;
1218;SDS011;599;51.494;6.670;2022-08-07T04:10:20;9.60;;;7.18;;
1218;SDS011;599;51.494;6.670;2022-08-07T04:12:47;8.80;;;6.35;;
1218;SDS011;599;51.494;6.670;2022-08-07T04:15:14;9.73;;;6.80;;
1218;SDS011;599;51.494;6.670;2022-08-07T04:17:42;8.68;;;7.20;;
1218;SDS011;599;51.494;6.670;2022-08-07T04:20:09;7.95;;;7.15;;
1218;SDS011;599;51.494;6.670;2022-08-07T04:22:40;7.65;;;6.80;;
1218;SDS011;599;51.494;6.670;2022-08-07T04:25:08;8.20;;;7.35;;
1218;SDS011;599;51.494;6.670;2022-08-07T04:27:38;7.78;;;6.90;;
1218;SDS011;599;51.494;6.670;2022-08-07T04:30:08;7.07;;;6.40;;
1218;SDS011;599;51.494;6.670;2022-08-07T04:32:50;9.20;;;7.50;;
1218;SDS011;599;51.494;6.670;2022-08-07T04:35:19;9.73;;;6.95;;
1218;SDS011;599;51.494;6.670;2022-08-07T04:37:45;8.40;;;7.00;;
1218;SDS011;599;51.494;6.670;2022-08-07T04:40:11;7.35;;;6.65;;
1218;SDS011;599;51.494;6.670;2022-08-07T04:42:38;7.07;;;6.40;;
1218;SDS011;599;51.494;6.670;2022-08-07T04:45:04;8.10;;;6.85;;
1218;SDS011;599;51.494;6.670;2022-08-07T04:47:45;7.80;;;7.10;;
1218;SDS011;599;51.494;6.670;2022-08-07T04:53:20;7.65;;;6.95;;
1218;SDS011;599;51.494;6.670;2022-08-07T04:56:12;8.10;;;7.28;;
1218;SDS011;599;51.494;6.670;2022-08-07T05:01:46;8.40;;;7.60;;
1218;SDS011;599;51.494;6.670;2022-08-07T05:04:45;7.53;;;6.85;;
1218;SDS011;599;51.494;6.670;2022-08-07T05:07:39;8.60;;;7.05;;
1218;SDS011;599;51.494;6.670;2022-08-07T05:10:11;7.45;;;6.72;;
1218;SDS011;599;51.494;6.670;2022-08-07T05:12:48;8.38;;;7.57;;
1218;SDS011;599;51.494;6.670;2022-08-07T05:15:23;9.27;;;7.10;;
1218;SDS011;599;51.494;6.670;2022-08-07T05:18:00;8.23;;;7.38;;
1218;SDS011;599;51.494;6.670;2022-08-07T05:20:53;13.77;;;8.20;;
1218;SDS011;599;51.494;6.670;2022-08-07T05:23:27;11.32;;;9.32;;
1218;SDS011;599;51.494;6.670;2022-08-07T05:26:09;10.95;;;9.02;;
1218;SDS011;599;51.494;6.670;2022-08-07T05:28:42;10.32;;;9.27;;
1218;SDS011;599;51.494;6.670;2022-08-07T05:31:11;11.05;;;9.95;;
1218;SDS011;599;51.494;6.670;2022-08-07T05:33:41;9.65;;;8.45;;
1218;SDS011;599;51.494;6.670;2022-08-07T05:36:08;9.10;;;8.20;;
1218;SDS011;599;51.494;6.670;2022-08-07T05:38:36;16.50;;;9.45;;
1218;SDS011;599;51.494;6.670;2022-08-07T05:41:03;10.35;;;7.45;;
1218;SDS011;599;51.494;6.670;2022-08-07T05:43:30;8.27;;;7.18;;
1218;SDS011;599;51.494;6.670;2022-08-07T05:45:57;8.77;;;7.88;;
1218;SDS011;599;51.494;6.670;2022-08-07T05:48:27;7.78;;;6.97;;
1218;SDS011;599;51.494;6.670;2022-08-07T05:50:55;8.55;;;7.53;;
1218;SDS011;599;51.494;6.670;2022-08-07T05:53:25;11.82;;;8.40;;
1218;SDS011;599;51.494;6.670;2022-08-07T05:55:52;10.05;;;8.48;;
1218;SDS011;599;51.494;6.670;2022-08-07T05:58:24;11.32;;;8.40;;
1218;SDS011;599;51.494;6.670;2022-08-07T06:00:52;8.50;;;7.60;;
1218;SDS011;599;51.494;6.670;2022-08-07T06:03:19;8.90;;;8.10;;
1218;SDS011;599;51.494;6.670;2022-08-07T06:05:47;8.32;;;7.53;;
1218;SDS011;599;51.494;6.670;2022-08-07T06:08:14;8.07;;;7.38;;
1218;SDS011;599;51.494;6.670;2022-08-07T06:10:42;8.75;;;7.85;;
1218;SDS011;599;51.494;6.670;2022-08-07T06:13:10;9.50;;;7.90;;
1218;SDS011;599;51.494;6.670;2022-08-07T06:15:36;8.10;;;7.38;;
1218;SDS011;599;51.494;6.670;2022-08-07T06:18:05;10.00;;;8.18;;
1218;SDS011;599;51.494;6.670;2022-08-07T06:20:35;8.68;;;7.78;;
1218;SDS011;599;51.494;6.670;2022-08-07T06:23:03;7.90;;;7.20;;
1218;SDS011;599;51.494;6.670;2022-08-07T06:25:36;8.45;;;7.22;;
1218;SDS011;599;51.494;6.670;2022-08-07T06:28:06;11.40;;;8.70;;
1218;SDS011;599;51.494;6.670;2022-08-07T06:30:34;11.35;;;8.95;;
1218;SDS011;599;51.494;6.670;2022-08-07T06:33:05;9.45;;;8.15;;
1218;SDS011;599;51.494;6.670;2022-08-07T06:35:33;8.25;;;7.43;;
1218;SDS011;599;51.494;6.670;2022-08-07T06:38:00;13.27;;;8.65;;
1218;SDS011;599;51.494;6.670;2022-08-07T06:40:27;12.43;;;6.50;;
1218;SDS011;599;51.494;6.670;2022-08-07T06:42:55;10.77;;;6.80;;
1218;SDS011;599;51.494;6.670;2022-08-07T06:45:31;9.18;;;7.30;;
1218;SDS011;599;51.494;6.670;2022-08-07T06:48:00;8.00;;;6.03;;
1218;SDS011;599;51.494;6.670;2022-08-07T06:50:34;8.02;;;6.63;;
1218;SDS011;599;51.494;6.670;2022-08-07T06:53:04;7.53;;;5.80;;
1218;SDS011;599;51.494;6.670;2022-08-07T06:55:33;9.73;;;7.90;;
1218;SDS011;599;51.494;6.670;2022-08-07T06:58:06;8.45;;;6.43;;
1218;SDS011;599;51.494;6.670;2022-08-07T07:00:41;6.95;;;5.93;;
1218;SDS011;599;51.494;6.670;2022-08-07T07:03:10;8.95;;;5.13;;
1218;SDS011;599;51.494;6.670;2022-08-07T07:05:37;6.53;;;5.82;;
1218;SDS011;599;51.494;6.670;2022-08-07T07:08:06;8.88;;;6.03;;
1218;SDS011;599;51.494;6.670;2022-08-07T07:10:33;7.20;;;5.90;;
1218;SDS011;599;51.494;6.670;2022-08-07T07:13:03;6.05;;;5.45;;
1218;SDS011;599;51.494;6.670;2022-08-07T07:15:43;7.30;;;5.43;;
1218;SDS011;599;51.494;6.670;2022-08-07T07:21:27;5.63;;;5.00;;
1218;SDS011;599;51.494;6.670;2022-08-07T07:23:57;9.43;;;5.30;;
1218;SDS011;599;51.494;6.670;2022-08-07T07:26:23;8.27;;;6.43;;
1218;SDS011;599;51.494;6.670;2022-08-07T07:28:53;6.45;;;4.85;;
1218;SDS011;599;51.494;6.670;2022-08-07T07:31:27;6.78;;;4.85;;
1218;SDS011;599;51.494;6.670;2022-08-07T07:34:05;4.80;;;4.30;;
1218;SDS011;599;51.494;6.670;2022-08-07T07:36:35;7.93;;;5.20;;
1218;SDS011;599;51.494;6.670;2022-08-07T07:39:03;11.02;;;6.20;;
1218;SDS011;599;51.494;6.670;2022-08-07T07:41:31;6.03;;;4.45;;
1218;SDS011;599;51.494;6.670;2022-08-07T07:43:59;6.30;;;4.72;;
1218;SDS011;599;51.494;6.670;2022-08-07T07:46:29;8.73;;;4.40;;
1218;SDS011;599;51.494;6.670;2022-08-07T07:49:00;7.30;;;5.10;;
1218;SDS011;599;51.494;6.670;2022-08-07T07:51:29;8.80;;;5.40;;
1218;SDS011;599;51.494;6.670;2022-08-07T07:53:56;7.33;;;5.20;;
1218;SDS011;599;51.494;6.670;2022-08-07T07:56:23;8.07;;;5.37;;
1218;SDS011;599;51.494;6.670;2022-08-07T07:58:50;5.10;;;3.83;;
1218;SDS011;599;51.494;6.670;2022-08-07T08:01:18;12.10;;;5.63;;
1218;SDS011;599;51.494;6.670;2022-08-07T08:03:45;6.27;;;4.20;;
1218;SDS011;599;51.494;6.670;2022-08-07T08:06:13;8.10;;;5.50;;
1218;SDS011;599;51.494;6.670;2022-08-07T08:08:40;11.50;;;5.63;;
1218;SDS011;599;51.494;6.670;2022-08-07T08:11:08;7.13;;;4.83;;
1218;SDS011;599;51.494;6.670;2022-08-07T08:13:43;10.23;;;5.80;;
1218;SDS011;599;51.494;6.670;2022-08-07T08:16:17;8.97;;;4.47;;
1218;SDS011;599;51.494;6.670;2022-08-07T08:18:45;6.37;;;4.57;;
1218;SDS011;599;51.494;6.670;2022-08-07T08:21:13;7.00;;;3.60;;
1218;SDS011;599;51.494;6.670;2022-08-07T08:24:02;8.47;;;3.73;;
1218;SDS011;599;51.494;6.670;2022-08-07T08:26:52;9.90;;;3.90;;
1218;SDS011;599;51.494;6.670;2022-08-07T08:29:43;6.03;;;3.60;;
1218;SDS011;599;51.494;6.670;2022-08-07T08:32:19;11.83;;;3.27;;
1218;SDS011;599;51.494;6.670;2022-08-07T08:34:50;3.83;;;2.53;;
1218;SDS011;599;51.494;6.670;2022-08-07T08:37:18;7.03;;;2.77;;
1218;SDS011;599;51.494;6.670;2022-08-07T08:39:45;5.10;;;2.70;;
1218;SDS011;599;51.494;6.670;2022-08-07T08:51:02;3.20;;;2.00;;
1218;SDS011;599;51.494;6.670;2022-08-07T08:53:41;5.93;;;1.20;;
1218;SDS011;599;51.494;6.670;2022-08-07T08:56:36;2.93;;;1.10;;
1218;SDS011;599;51.494;6.670;2022-08-07T09:02:04;6.03;;;1.27;;
1218;SDS011;599;51.494;6.670;2022-08-07T09:07:43;4.83;;;1.37;;
1218;SDS011;599;51.494;6.670;2022-08-07T09:10:16;3.80;;;1.33;;
1218;SDS011;599;51.494;6.670;2022-08-07T09:25:33;4.00;;;1.10;;
1218;SDS011;599;51.494;6.670;2022-08-07T09:28:37;2.00;;;1.03;;
1218;SDS011;599;51.494;6.670;2022-08-07T09:31:15;4.67;;;1.40;;
1218;SDS011;599;51.494;6.670;2022-08-07T09:36:47;2.03;;;0.80;;
1218;SDS011;599;51.494;6.670;2022-08-07T09:42:21;4.30;;;0.93;;
1218;SDS011;599;51.494;6.670;2022-08-07T09:45:08;1.83;;;0.90;;
1218;SDS011;599;51.494;6.670;2022-08-07T09:50:38;2.53;;;0.70;;
1218;SDS011;599;51.494;6.670;2022-08-07T09:53:31;1.70;;;0.73;;
1218;SDS011;599;51.494;6.670;2022-08-07T09:59:06;1.50;;;0.80;;
1218;SDS011;599;51.494;6.670;2022-08-07T10:11:02;3.57;;;0.90;;
1218;SDS011;599;51.494;6.670;2022-08-07T10:16:34;2.67;;;0.90;;
1218;SDS011;599;51.494;6.670;2022-08-07T10:19:29;2.63;;;1.70;;
1218;SDS011;599;51.494;6.670;2022-08-07T10:28:40;2.00;;;0.80;;
1218;SDS011;599;51.494;6.670;2022-08-07T10:31:47;2.57;;;0.70;;
1218;SDS011;599;51.494;6.670;2022-08-07T10:35:00;3.27;;;1.00;;
1218;SDS011;599;51.494;6.670;2022-08-07T10:40:24;3.00;;;0.80;;
1218;SDS011;599;51.494;6.670;2022-08-07T10:43:11;3.50;;;1.00;;
1218;SDS011;599;51.494;6.670;2022-08-07T10:45:48;3.60;;;1.07;;
1218;SDS011;599;51.494;6.670;2022-08-07T10:51:16;6.30;;;1.10;;
1218;SDS011;599;51.494;6.670;2022-08-07T10:56:34;2.03;;;0.93;;
1218;SDS011;599;51.494;6.670;2022-08-07T11:11:42;2.80;;;1.07;;
1218;SDS011;599;51.494;6.670;2022-08-07T11:14:38;3.53;;;1.00;;
1218;SDS011;599;51.494;6.670;2022-08-07T11:17:23;5.37;;;0.90;;
1218;SDS011;599;51.494;6.670;2022-08-07T11:20:04;2.73;;;1.03;;
1218;SDS011;599;51.494;6.670;2022-08-07T11:25:44;3.47;;;0.70;;
1218;SDS011;599;51.494;6.670;2022-08-07T11:31:06;3.00;;;0.87;;
1218;SDS011;599;51.494;6.670;2022-08-07T11:36:37;3.40;;;0.90;;
1218;SDS011;599;51.494;6.670;2022-08-07T11:39:35;3.00;;;0.80;;
1218;SDS011;599;51.494;6.670;2022-08-07T11:42:30;2.00;;;0.90;;
1218;SDS011;599;51.494;6.670;2022-08-07T11:45:11;2.10;;;1.10;;
1218;SDS011;599;51.494;6.670;2022-08-07T11:56:12;3.47;;;0.70;;
1218;SDS011;599;51.494;6.670;2022-08-07T12:08:39;3.40;;;1.00;;
1218;SDS011;599;51.494;6.670;2022-08-07T12:11:21;1.50;;;0.60;;
1218;SDS011;599;51.494;6.670;2022-08-07T12:14:18;3.50;;;1.17;;
1218;SDS011;599;51.494;6.670;2022-08-07T12:16:56;2.90;;;0.80;;
1218;SDS011;599;51.494;6.670;2022-08-07T12:19:48;1.87;;;0.67;;
1218;SDS011;599;51.494;6.670;2022-08-07T12:25:31;2.83;;;0.73;;
1218;SDS011;599;51.494;6.670;2022-08-07T12:31:16;2.73;;;1.17;;
1218;SDS011;599;51.494;6.670;2022-08-07T12:34:11;1.90;;;0.90;;
1218;SDS011;599;51.494;6.670;2022-08-07T12:36:37;2.83;;;0.90;;
1218;SDS011;599;51.494;6.670;2022-08-07T12:39:07;5.20;;;1.00;;
1218;SDS011;599;51.494;6.670;2022-08-07T12:41:34;1.87;;;0.63;;
1218;SDS011;599;51.494;6.670;2022-08-07T12:44:03;2.70;;;0.80;;
1218;SDS011;599;51.494;6.670;2022-08-07T12:49:41;5.00;;;1.13;;
1218;SDS011;599;51.494;6.670;2022-08-07T12:55:03;3.73;;;0.80;;
1218;SDS011;599;51.494;6.670;2022-08-07T12:57:46;3.10;;;0.80;;
1218;SDS011;599;51.494;6.670;2022-08-07T13:00:13;1.77;;;0.90;;
1218;SDS011;599;51.494;6.670;2022-08-07T13:13:53;2.13;;;1.10;;
1218;SDS011;599;51.494;6.670;2022-08-07T13:19:51;3.00;;;1.73;;
1218;SDS011;599;51.494;6.670;2022-08-07T13:22:26;2.80;;;2.17;;
1218;SDS011;599;51.494;6.670;2022-08-07T13:25:10;4.10;;;1.20;;
1218;SDS011;599;51.494;6.670;2022-08-07T13:27:51;3.50;;;1.40;;
1218;SDS011;599;51.494;6.670;2022-08-07T13:30:22;2.10;;;1.43;;
1218;SDS011;599;51.494;6.670;2022-08-07T13:35:45;2.03;;;1.30;;
1218;SDS011;599;51.494;6.670;2022-08-07T13:38:29;3.80;;;0.80;;
1218;SDS011;599;51.494;6.670;2022-08-07T13:44:03;8.90;;;1.60;;
1218;SDS011;599;51.494;6.670;2022-08-07T13:46:32;2.83;;;1.00;;
1218;SDS011;599;51.494;6.670;2022-08-07T13:49:03;3.67;;;1.13;;
1218;SDS011;599;51.494;6.670;2022-08-07T13:51:32;3.10;;;1.20;;
1218;SDS011;599;51.494;6.670;2022-08-07T13:54:03;2.70;;;1.20;;
1218;SDS011;599;51.494;6.670;2022-08-07T13:56:34;2.37;;;1.20;;
1218;SDS011;599;51.494;6.670;2022-08-07T13:59:03;3.97;;;1.13;;
1218;SDS011;599;51.494;6.670;2022-08-07T14:01:50;1.40;;;0.90;;
1218;SDS011;599;51.494;6.670;2022-08-07T14:04:23;3.00;;;1.00;;
1218;SDS011;599;51.494;6.670;2022-08-07T14:06:51;5.07;;;1.20;;
1218;SDS011;599;51.494;6.670;2022-08-07T14:09:22;1.70;;;0.90;;
1218;SDS011;599;51.494;6.670;2022-08-07T14:11:55;5.40;;;1.40;;
1218;SDS011;599;51.494;6.670;2022-08-07T14:14:27;2.17;;;1.00;;
1218;SDS011;599;51.494;6.670;2022-08-07T14:16:58;4.23;;;1.23;;
1218;SDS011;599;51.494;6.670;2022-08-07T14:19:29;3.40;;;1.20;;
1218;SDS011;599;51.494;6.670;2022-08-07T14:22:02;1.80;;;0.90;;
1218;SDS011;599;51.494;6.670;2022-08-07T14:24:32;3.77;;;1.23;;
1218;SDS011;599;51.494;6.670;2022-08-07T14:27:07;4.50;;;1.10;;
1218;SDS011;599;51.494;6.670;2022-08-07T14:29:40;1.60;;;0.90;;
1218;SDS011;599;51.494;6.670;2022-08-07T14:32:13;2.53;;;1.00;;
1218;SDS011;599;51.494;6.670;2022-08-07T14:34:44;2.77;;;1.47;;
1218;SDS011;599;51.494;6.670;2022-08-07T14:37:11;3.10;;;1.27;;
1218;SDS011;599;51.494;6.670;2022-08-07T14:39:42;2.10;;;1.40;;
1218;SDS011;599;51.494;6.670;2022-08-07T14:42:10;2.53;;;1.40;;
1218;SDS011;599;51.494;6.670;2022-08-07T14:44:39;3.40;;;1.00;;
1218;SDS011;599;51.494;6.670;2022-08-07T14:47:14;1.47;;;0.80;;
1218;SDS011;599;51.494;6.670;2022-08-07T14:49:42;2.50;;;1.20;;
1218;SDS011;599;51.494;6.670;2022-08-07T14:52:09;2.00;;;1.03;;
1218;SDS011;599;51.494;6.670;2022-08-07T14:54:39;3.37;;;1.63;;
1218;SDS011;599;51.494;6.670;2022-08-07T14:57:11;7.20;;;1.63;;
1218;SDS011;599;51.494;6.670;2022-08-07T14:59:38;3.47;;;1.00;;
1218;SDS011;599;51.494;6.670;2022-08-07T15:02:10;3.30;;;1.27;;
1218;SDS011;599;51.494;6.670;2022-08-07T15:04:39;3.13;;;1.60;;
1218;SDS011;599;51.494;6.670;2022-08-07T15:07:09;2.40;;;1.63;;
1218;SDS011;599;51.494;6.670;2022-08-07T15:09:41;2.83;;;1.00;;
1218;SDS011;599;51.494;6.670;2022-08-07T15:12:14;2.60;;;1.20;;
1218;SDS011;599;51.494;6.670;2022-08-07T15:14:48;3.17;;;1.27;;
1218;SDS011;599;51.494;6.670;2022-08-07T15:17:21;3.17;;;1.33;;
1218;SDS011;599;51.494;6.670;2022-08-07T15:19:57;2.23;;;1.30;;
1218;SDS011;599;51.494;6.670;2022-08-07T15:22:30;2.27;;;1.40;;
1218;SDS011;599;51.494;6.670;2022-08-07T15:25:10;2.50;;;1.07;;
1218;SDS011;599;51.494;6.670;2022-08-07T15:27:39;4.60;;;1.80;;
1218;SDS011;599;51.494;6.670;2022-08-07T15:30:07;2.97;;;1.33;;
1218;SDS011;599;51.494;6.670;2022-08-07T15:32:46;5.97;;;1.53;;
1218;SDS011;599;51.494;6.670;2022-08-07T15:35:34;3.70;;;1.60;;
1218;SDS011;599;51.494;6.670;2022-08-07T15:38:01;2.57;;;1.30;;
1218;SDS011;599;51.494;6.670;2022-08-07T15:40:30;2.80;;;1.60;;
1218;SDS011;599;51.494;6.670;2022-08-07T15:43:21;1.63;;;1.03;;
1218;SDS011;599;51.494;6.670;2022-08-07T15:45:49;1.83;;;1.03;;
1218;SDS011;599;51.494;6.670;2022-08-07T15:48:22;1.87;;;1.10;;
1218;SDS011;599;51.494;6.670;2022-08-07T15:50:55;4.43;;;1.50;;
1218;SDS011;599;51.494;6.670;2022-08-07T15:53:37;2.50;;;1.40;;
1218;SDS011;599;51.494;6.670;2022-08-07T15:56:29;1.97;;;1.27;;
1218;SDS011;599;51.494;6.670;2022-08-07T15:59:03;3.37;;;1.20;;
1218;SDS011;599;51.494;6.670;2022-08-07T16:01:37;3.10;;;1.23;;
1218;SDS011;599;51.494;6.670;2022-08-07T16:04:10;2.20;;;1.17;;
1218;SDS011;599;51.494;6.670;2022-08-07T16:06:43;3.90;;;1.20;;
1218;SDS011;599;51.494;6.670;2022-08-07T16:20:49;1.70;;;1.20;;
1218;SDS011;599;51.494;6.670;2022-08-07T16:26:09;3.00;;;1.43;;
1218;SDS011;599;51.494;6.670;2022-08-07T16:31:45;3.37;;;1.40;;
1218;SDS011;599;51.494;6.670;2022-08-07T16:39:31;1.90;;;1.43;;
1218;SDS011;599;51.494;6.670;2022-08-07T16:59:49;2.27;;;1.23;;
1218;SDS011;599;51.494;6.670;2022-08-07T17:03:24;1.90;;;1.27;;
1218;SDS011;599;51.494;6.670;2022-08-07T17:05:29;2.37;;;1.47;;
1218;SDS011;599;51.494;6.670;2022-08-07T17:08:09;1.93;;;1.40;;
1218;SDS011;599;51.494;6.670;2022-08-07T17:10:44;2.80;;;1.47;;
1218;SDS011;599;51.494;6.670;2022-08-07T17:21:03;2.60;;;1.30;;
1218;SDS011;599;51.494;6.670;2022-08-07T17:23:47;3.20;;;1.40;;
1218;SDS011;599;51.494;6.670;2022-08-07T17:26:35;3.50;;;1.70;;
1218;SDS011;599;51.494;6.670;2022-08-07T17:29:19;3.80;;;1.53;;
1218;SDS011;599;51.494;6.670;2022-08-07T17:34:41;3.30;;;2.07;;
1218;SDS011;599;51.494;6.670;2022-08-07T17:37:25;2.53;;;1.43;;
1218;SDS011;599;51.494;6.670;2022-08-07T17:40:00;2.40;;;1.73;;
1218;SDS011;599;51.494;6.670;2022-08-07T17:42:43;3.27;;;1.60;;
1218;SDS011;599;51.494;6.670;2022-08-07T17:45:20;2.13;;;1.50;;
1218;SDS011;599;51.494;6.670;2022-08-07T17:47:59;2.30;;;1.57;;
1218;SDS011;599;51.494;6.670;2022-08-07T17:56:58;3.57;;;1.87;;
1218;SDS011;599;51.494;6.670;2022-08-07T17:59:31;4.10;;;1.70;;
1218;SDS011;599;51.494;6.670;2022-08-07T18:02:40;2.03;;;1.43;;
1218;SDS011;599;51.494;6.670;2022-08-07T18:05:18;3.53;;;1.40;;
1218;SDS011;599;51.494;6.670;2022-08-07T18:15:50;8.13;;;2.03;;
1218;SDS011;599;51.494;6.670;2022-08-07T18:18:43;2.30;;;1.90;;
1218;SDS011;599;51.494;6.670;2022-08-07T18:21:15;3.00;;;1.73;;
1218;SDS011;599;51.494;6.670;2022-08-07T18:27:15;3.50;;;2.10;;
1218;SDS011;599;51.494;6.670;2022-08-07T18:30:02;2.27;;;1.73;;
1218;SDS011;599;51.494;6.670;2022-08-07T18:38:55;3.83;;;1.93;;
1218;SDS011;599;51.494;6.670;2022-08-07T18:47:28;3.10;;;1.40;;
1218;SDS011;599;51.494;6.670;2022-08-07T18:53:57;3.70;;;2.13;;
1218;SDS011;599;51.494;6.670;2022-08-07T19:02:24;2.10;;;1.70;;
1218;SDS011;599;51.494;6.670;2022-08-07T19:05:09;2.57;;;2.00;;
1218;SDS011;599;51.494;6.670;2022-08-07T19:10:28;2.57;;;1.67;;
1218;SDS011;599;51.494;6.670;2022-08-07T19:16:01;3.13;;;2.13;;
1218;SDS011;599;51.494;6.670;2022-08-07T19:24:53;2.20;;;1.90;;
1218;SDS011;599;51.494;6.670;2022-08-07T19:27:20;3.97;;;1.90;;
1218;SDS011;599;51.494;6.670;2022-08-07T19:29:50;2.60;;;1.90;;
1218;SDS011;599;51.494;6.670;2022-08-07T19:32:25;14.37;;;4.00;;
1218;SDS011;599;51.494;6.670;2022-08-07T19:34:56;8.37;;;3.00;;
1218;SDS011;599;51.494;6.670;2022-08-07T19:37:26;4.33;;;2.73;;
1218;SDS011;599;51.494;6.670;2022-08-07T19:40:03;3.40;;;2.60;;
1218;SDS011;599;51.494;6.670;2022-08-07T19:42:40;3.50;;;2.50;;
1218;SDS011;599;51.494;6.670;2022-08-07T19:45:19;3.07;;;2.50;;
1218;SDS011;599;51.494;6.670;2022-08-07T19:47:50;2.47;;;2.10;;
1218;SDS011;599;51.494;6.670;2022-08-07T19:50:18;5.63;;;2.70;;
1218;SDS011;599;51.494;6.670;2022-08-07T19:52:47;4.30;;;2.77;;
1218;SDS011;599;51.494;6.670;2022-08-07T19:55:19;3.50;;;2.70;;
1218;SDS011;599;51.494;6.670;2022-08-07T19:57:51;3.00;;;2.40;;
1218;SDS011;599;51.494;6.670;2022-08-07T20:00:21;2.60;;;2.40;;
1218;SDS011;599;51.494;6.670;2022-08-07T20:02:52;2.90;;;2.60;;
1218;SDS011;599;51.494;6.670;2022-08-07T20:05:44;6.57;;;3.07;;
1218;SDS011;599;51.494;6.670;2022-08-07T20:08:18;3.27;;;2.50;;
1218;SDS011;599;51.494;6.670;2022-08-07T20:10:52;3.30;;;2.30;;
1218;SDS011;599;51.494;6.670;2022-08-07T20:13:29;3.83;;;2.30;;
1218;SDS011;599;51.494;6.670;2022-08-07T20:16:02;4.80;;;3.13;;
1218;SDS011;599;51.494;6.670;2022-08-07T20:18:31;6.40;;;3.00;;
1218;SDS011;599;51.494;6.670;2022-08-07T20:20:58;4.47;;;2.80;;